Terminal Aerodrome Forecast
Issued by NWS

Home | Current Version | Previous Version | Text Only | Print | Product List | Glossary On
Versions: 1 2 3 4 5 6 7 8 9 10 11 12 13 14 15 16 17
000
FTAK31 PAJN 290535
TAFAGY
TAF
PAGY 290535Z 2906/3006 21012KT P6SM -SHRA OVC050
     FM291200 21012G18KT P6SM -SHRA SCT035 OVC050
     FM291900 21014G21KT P6SM -SHRA BKN050
     FM292200 21017G26KT P6SM VCSH BKN050
      AMD LTD TO CLD VIS AND WIND=

USA.gov is the U.S. government's official web portal to all federal, state and local government web resources and services.